createdAt,value
2022-09-06T00:00:18.090Z,5.07
2022-09-06T00:02:45.398Z,4.80
2022-09-06T00:05:13.381Z,6.10
2022-09-06T00:07:40.544Z,2.55
2022-09-06T00:10:08.436Z,4.10
2022-09-06T00:12:36.073Z,2.90
2022-09-06T00:15:04.242Z,4.32
2022-09-06T00:17:33.239Z,2.33
2022-09-06T00:20:00.092Z,2.85
2022-09-06T00:22:26.967Z,4.18
2022-09-06T00:24:53.731Z,4.40
2022-09-06T00:27:20.540Z,6.53
2022-09-06T00:29:47.345Z,2.90
2022-09-06T00:32:14.190Z,4.13
2022-09-06T00:34:40.986Z,4.35
2022-09-06T00:37:07.773Z,2.67
2022-09-06T00:39:35.411Z,3.95
2022-09-06T00:42:02.212Z,3.00
2022-09-06T00:44:29.051Z,5.00
2022-09-06T00:46:56.247Z,3.90
2022-09-06T00:49:41.822Z,4.53
2022-09-06T00:54:40.625Z,5.75
2022-09-06T00:57:07.984Z,4.57
2022-09-06T00:59:38.198Z,2.80
2022-09-06T01:02:05.871Z,4.10
2022-09-06T01:04:33.666Z,2.85
2022-09-06T01:07:14.173Z,2.97
2022-09-06T01:10:30.155Z,3.17
2022-09-06T01:13:57.416Z,3.23
2022-09-06T01:19:17.821Z,1.75
2022-09-06T01:22:17.996Z,3.45
2022-09-06T01:25:39.089Z,2.50
2022-09-06T01:28:22.061Z,2.20
2022-09-06T01:31:02.890Z,2.97
2022-09-06T01:33:44.939Z,3.85
2022-09-06T01:36:18.762Z,2.63
2022-09-06T01:38:46.079Z,2.63
2022-09-06T01:41:12.880Z,4.85
2022-09-06T01:43:45.157Z,2.83
2022-09-06T01:47:05.611Z,2.72
2022-09-06T01:50:20.959Z,3.72
2022-09-06T01:53:25.299Z,4.97
2022-09-06T01:56:17.675Z,2.50
2022-09-06T01:59:14.225Z,2.75
2022-09-06T02:02:27.090Z,3.58
2022-09-06T02:05:05.450Z,4.25
2022-09-06T02:07:35.748Z,3.67
2022-09-06T02:10:22.959Z,3.35
2022-09-06T02:12:55.113Z,3.00
2022-09-06T02:15:28.811Z,4.45
2022-09-06T02:18:13.339Z,4.00
2022-09-06T02:20:51.957Z,2.72
2022-09-06T02:23:21.493Z,3.90
2022-09-06T02:25:54.827Z,3.55
2022-09-06T02:28:22.974Z,3.72
2022-09-06T02:30:54.722Z,4.72
2022-09-06T02:33:29.484Z,5.28
2022-09-06T02:35:56.868Z,5.55
2022-09-06T02:38:26.448Z,5.95
2022-09-06T02:40:55.235Z,3.95
2022-09-06T02:43:22.020Z,5.45
2022-09-06T02:45:49.026Z,4.03
2022-09-06T02:48:15.891Z,5.50
2022-09-06T02:50:42.675Z,5.38
2022-09-06T02:53:12.835Z,3.83
2022-09-06T02:55:39.910Z,7.70
2022-09-06T02:58:09.955Z,6.38
2022-09-06T03:00:37.921Z,6.38
2022-09-06T03:03:05.244Z,6.15
2022-09-06T03:05:32.256Z,8.05
2022-09-06T03:07:59.463Z,4.63
2022-09-06T03:10:26.539Z,5.00
2022-09-06T03:12:54.053Z,3.67
2022-09-06T03:15:20.902Z,3.60
2022-09-06T03:17:47.746Z,5.90
2022-09-06T03:20:14.835Z,4.15
2022-09-06T03:22:42.394Z,4.07
2022-09-06T03:25:11.200Z,8.07
2022-09-06T03:27:38.331Z,6.18
2022-09-06T03:30:07.291Z,5.45
2022-09-06T03:32:34.393Z,5.55
2022-09-06T03:35:01.277Z,6.63
2022-09-06T03:37:28.503Z,7.80
2022-09-06T03:39:55.411Z,5.22
2022-09-06T03:42:22.645Z,11.20
2022-09-06T03:44:49.468Z,8.50
2022-09-06T03:47:19.407Z,9.50
2022-09-06T03:49:47.203Z,8.88
2022-09-06T03:52:14.660Z,10.32
2022-09-06T03:54:41.464Z,11.27
2022-09-06T03:57:08.311Z,11.30
2022-09-06T03:59:35.681Z,10.38
2022-09-06T04:02:03.005Z,10.27
2022-09-06T04:04:30.332Z,10.95
2022-09-06T04:06:57.159Z,11.48
2022-09-06T04:09:24.206Z,10.23
2022-09-06T04:11:51.154Z,12.05
2022-09-06T04:14:18.036Z,10.68
2022-09-06T04:16:44.877Z,11.65
2022-09-06T04:19:11.884Z,11.77
2022-09-06T04:21:39.015Z,10.90
2022-09-06T04:24:05.931Z,13.77
2022-09-06T04:26:33.167Z,14.18
2022-09-06T04:29:00.178Z,14.18
2022-09-06T04:31:27.599Z,12.48
2022-09-06T04:33:54.419Z,12.60
2022-09-06T04:36:21.770Z,17.33
2022-09-06T04:38:48.556Z,15.40
2022-09-06T04:41:17.536Z,22.08
2022-09-06T04:43:45.071Z,22.92
2022-09-06T04:46:25.180Z,20.40
2022-09-06T04:48:54.002Z,25.88
2022-09-06T04:51:22.061Z,21.20
2022-09-06T04:53:49.109Z,23.98
2022-09-06T04:56:23.212Z,25.95
2022-09-06T04:58:51.728Z,29.92
2022-09-06T05:01:19.135Z,25.50
2022-09-06T05:03:47.145Z,27.90
2022-09-06T05:06:21.650Z,29.55
2022-09-06T05:08:49.484Z,28.20
2022-09-06T05:11:17.483Z,28.55
2022-09-06T05:13:47.397Z,26.77
2022-09-06T05:16:14.660Z,30.42
2022-09-06T05:18:41.585Z,32.33
2022-09-06T05:21:08.435Z,32.90
2022-09-06T05:23:35.445Z,33.65
2022-09-06T05:26:02.663Z,29.83
2022-09-06T05:28:29.990Z,32.30
2022-09-06T05:31:10.170Z,28.75
2022-09-06T05:33:37.163Z,30.30
2022-09-06T05:36:07.619Z,30.25
2022-09-06T05:38:34.444Z,30.55
2022-09-06T05:41:01.417Z,30.60
2022-09-06T05:43:28.207Z,36.88
2022-09-06T05:45:55.084Z,34.70
2022-09-06T05:48:21.995Z,34.22
2022-09-06T05:50:48.828Z,38.03
2022-09-06T05:53:15.619Z,39.65
2022-09-06T05:55:43.249Z,39.08
2022-09-06T05:58:10.156Z,37.72
2022-09-06T06:00:37.039Z,42.63
2022-09-06T06:03:03.800Z,40.45
2022-09-06T06:05:30.620Z,46.58
2022-09-06T06:07:59.097Z,39.85
2022-09-06T06:10:26.055Z,36.20
2022-09-06T06:12:52.888Z,43.22
2022-09-06T06:15:19.691Z,38.80
2022-09-06T06:17:46.455Z,47.42
2022-09-06T06:20:13.414Z,40.05
2022-09-06T06:22:40.197Z,50.90
2022-09-06T06:25:07.526Z,47.65
2022-09-06T06:27:35.523Z,49.25
2022-09-06T06:30:02.310Z,40.40
2022-09-06T06:32:29.100Z,37.35
2022-09-06T06:34:55.882Z,34.38
2022-09-06T06:37:22.747Z,30.85
2022-09-06T06:39:49.732Z,34.08
2022-09-06T06:42:16.614Z,28.02
2022-09-06T06:44:43.452Z,26.50
2022-09-06T06:47:10.245Z,29.40
2022-09-06T06:49:37.035Z,30.92
2022-09-06T06:52:04.025Z,28.27
2022-09-06T06:54:31.213Z,24.45
2022-09-06T06:56:58.017Z,24.00
2022-09-06T06:59:24.850Z,29.20
2022-09-06T07:01:51.929Z,23.13
2022-09-06T07:04:18.798Z,27.58
2022-09-06T07:12:30.453Z,23.58
2022-09-06T07:14:57.238Z,22.98
2022-09-06T07:17:24.046Z,21.48
2022-09-06T07:22:39.662Z,23.50
2022-09-06T07:25:08.452Z,20.65
2022-09-06T07:27:51.015Z,17.67
2022-09-06T07:30:20.391Z,19.30
2022-09-06T07:32:48.227Z,23.05
2022-09-06T07:35:15.208Z,17.52
2022-09-06T07:37:42.331Z,19.00
2022-09-06T07:40:10.412Z,20.25
2022-09-06T07:42:37.372Z,20.77
2022-09-06T07:45:05.649Z,21.05
2022-09-06T07:53:09.525Z,18.70
2022-09-06T07:55:39.821Z,20.38
2022-09-06T07:58:06.599Z,16.52
2022-09-06T08:00:33.550Z,15.73
2022-09-06T08:03:00.354Z,18.25
2022-09-06T08:11:01.247Z,15.07
2022-09-06T08:13:28.152Z,12.32
2022-09-06T08:16:07.543Z,17.48
2022-09-06T08:18:38.391Z,16.35
2022-09-06T08:21:12.601Z,15.13
2022-09-06T08:23:52.548Z,14.40
2022-09-06T08:26:21.556Z,12.23
2022-09-06T08:28:48.951Z,13.27
2022-09-06T08:31:18.130Z,13.48
2022-09-06T08:33:45.073Z,12.55
2022-09-06T08:36:12.315Z,13.25
2022-09-06T08:38:39.495Z,14.02
2022-09-06T08:41:15.294Z,8.13
2022-09-06T08:47:13.685Z,12.10
2022-09-06T08:49:47.379Z,7.53
2022-09-06T08:52:24.384Z,6.82
2022-09-06T08:55:06.394Z,7.88
2022-09-06T08:57:52.655Z,8.70
2022-09-06T09:00:20.828Z,10.20
2022-09-06T09:02:55.368Z,8.82
2022-09-06T09:05:28.447Z,8.75
2022-09-06T09:08:27.440Z,5.18
2022-09-06T09:11:07.951Z,6.32
2022-09-06T09:13:55.686Z,7.07
2022-09-06T09:16:23.544Z,5.53
2022-09-06T09:18:55.511Z,7.50
2022-09-06T09:21:30.437Z,8.75
2022-09-06T09:24:03.720Z,8.60
2022-09-06T09:26:39.817Z,7.25
2022-09-06T09:29:11.673Z,7.32
2022-09-06T09:31:53.616Z,5.90
2022-09-06T09:34:39.853Z,7.55
2022-09-06T09:40:07.797Z,9.25
2022-09-06T09:42:37.817Z,10.20
2022-09-06T09:45:24.827Z,9.65
2022-09-06T09:47:52.111Z,8.40
2022-09-06T09:50:32.592Z,12.05
2022-09-06T09:53:15.794Z,10.90
2022-09-06T09:55:44.249Z,9.05
2022-09-06T09:58:37.494Z,11.70
2022-09-06T10:01:23.219Z,8.27
2022-09-06T10:09:37.534Z,13.55
2022-09-06T10:12:05.094Z,7.57
2022-09-06T10:14:44.322Z,13.10
2022-09-06T10:17:30.988Z,10.68
2022-09-06T10:20:04.199Z,14.00
2022-09-06T10:22:40.189Z,7.97
2022-09-06T10:25:15.960Z,12.77
2022-09-06T10:28:13.256Z,14.00
2022-09-06T10:30:58.115Z,9.70
2022-09-06T10:33:46.136Z,12.40
2022-09-06T10:36:26.398Z,13.02
2022-09-06T10:39:00.369Z,12.63
2022-09-06T10:41:48.916Z,8.98
2022-09-06T10:44:35.199Z,9.73
2022-09-06T10:47:13.561Z,10.30
2022-09-06T10:49:46.131Z,11.10
2022-09-06T10:52:26.936Z,9.45
2022-09-06T10:55:02.302Z,12.18
2022-09-06T11:00:49.553Z,11.43
2022-09-06T11:06:25.503Z,13.77
2022-09-06T11:09:47.599Z,11.10
2022-09-06T11:12:33.397Z,12.40
2022-09-06T11:15:03.740Z,11.75
2022-09-06T11:17:47.735Z,13.27
2022-09-06T11:20:31.377Z,11.27
2022-09-06T11:23:29.521Z,14.10
2022-09-06T11:26:05.426Z,11.88
2022-09-06T11:28:37.760Z,12.75
2022-09-06T11:31:05.927Z,14.52
2022-09-06T11:33:36.575Z,15.52
2022-09-06T11:36:40.896Z,13.15
2022-09-06T11:39:09.696Z,13.30
2022-09-06T11:41:41.533Z,13.90
2022-09-06T11:44:10.703Z,10.27
2022-09-06T11:46:38.935Z,16.35
2022-09-06T11:49:29.861Z,9.32
2022-09-06T11:51:56.696Z,12.38
2022-09-06T11:54:35.095Z,17.73
2022-09-06T11:57:13.148Z,15.88
2022-09-06T11:59:46.129Z,10.65
2022-09-06T12:02:41.083Z,12.25
2022-09-06T12:05:14.077Z,15.97
2022-09-06T12:08:24.944Z,15.30
2022-09-06T12:11:30.562Z,14.80
2022-09-06T12:14:03.847Z,15.55
2022-09-06T12:16:58.638Z,13.85
2022-09-06T12:20:06.208Z,14.45
2022-09-06T12:22:33.360Z,9.75
2022-09-06T12:25:24.598Z,12.77
2022-09-06T12:28:03.384Z,12.48
2022-09-06T12:30:37.437Z,13.50
2022-09-06T12:33:22.583Z,11.10
2022-09-06T12:35:58.631Z,12.45
2022-09-06T12:38:26.429Z,12.57
2022-09-06T12:40:58.610Z,10.57
2022-09-06T12:43:26.571Z,11.90
2022-09-06T12:45:53.663Z,12.75
2022-09-06T12:48:36.258Z,9.80
2022-09-06T12:51:06.942Z,10.90
2022-09-06T12:53:35.117Z,10.48
2022-09-06T12:56:10.280Z,11.27
2022-09-06T13:01:26.372Z,11.30
2022-09-06T13:04:13.034Z,10.32
2022-09-06T13:06:43.649Z,13.73
2022-09-06T13:09:15.620Z,12.82
2022-09-06T13:11:51.966Z,8.63
2022-09-06T13:14:28.334Z,10.13
2022-09-06T13:16:58.420Z,9.13
2022-09-06T13:19:40.696Z,8.23
2022-09-06T13:22:11.298Z,9.43
2022-09-06T13:24:47.025Z,8.35
2022-09-06T13:27:38.554Z,8.85
2022-09-06T13:30:09.508Z,11.70
2022-09-06T13:32:46.185Z,10.73
2022-09-06T13:35:24.022Z,9.45
2022-09-06T13:37:51.115Z,7.40
2022-09-06T13:41:08.994Z,6.00
2022-09-06T13:43:29.450Z,11.90
2022-09-06T13:46:08.429Z,12.38
2022-09-06T13:48:36.057Z,10.70
2022-09-06T13:51:09.779Z,9.50
2022-09-06T13:53:36.726Z,13.35
2022-09-06T13:56:03.920Z,10.35
2022-09-06T13:58:30.821Z,6.40
2022-09-06T14:00:58.779Z,8.35
2022-09-06T14:03:31.250Z,9.80
2022-09-06T14:06:00.591Z,13.50
2022-09-06T14:08:49.267Z,11.63
2022-09-06T14:11:18.597Z,9.45
2022-09-06T14:13:46.031Z,7.38
2022-09-06T14:16:12.970Z,7.95
2022-09-06T14:18:40.684Z,6.80
2022-09-06T14:21:07.969Z,7.30
2022-09-06T14:23:34.817Z,7.88
2022-09-06T14:26:04.126Z,14.77
2022-09-06T14:28:33.723Z,8.60
2022-09-06T14:31:13.009Z,9.40
2022-09-06T14:33:39.990Z,9.18
2022-09-06T14:36:12.484Z,8.38
2022-09-06T14:38:41.828Z,6.43
2022-09-06T14:41:09.911Z,8.95
2022-09-06T14:43:37.988Z,8.60
2022-09-06T14:46:14.426Z,7.20
2022-09-06T14:48:43.076Z,9.85
2022-09-06T14:51:22.136Z,12.07
2022-09-06T14:53:56.329Z,8.07
2022-09-06T14:56:23.928Z,7.82
2022-09-06T14:58:50.808Z,9.38
2022-09-06T15:01:21.582Z,8.23
2022-09-06T15:03:52.382Z,9.15
2022-09-06T15:06:22.195Z,8.90
2022-09-06T15:08:50.373Z,8.43
2022-09-06T15:11:40.333Z,7.10
2022-09-06T15:14:13.529Z,6.78
2022-09-06T15:16:40.355Z,6.85
2022-09-06T15:19:08.037Z,9.38
2022-09-06T15:21:34.963Z,9.93
2022-09-06T15:24:03.219Z,6.18
2022-09-06T15:26:30.651Z,8.48
2022-09-06T15:28:57.570Z,6.05
2022-09-06T15:31:24.543Z,6.93
2022-09-06T15:33:52.224Z,5.22
2022-09-06T15:36:19.263Z,6.28
2022-09-06T15:38:51.084Z,7.95
2022-09-06T15:41:22.805Z,11.65
2022-09-06T15:43:52.830Z,6.45
2022-09-06T15:46:41.002Z,7.45
2022-09-06T15:49:10.189Z,10.15
2022-09-06T15:51:38.991Z,13.35
2022-09-06T15:54:07.166Z,6.05
2022-09-06T15:56:34.284Z,6.97
2022-09-06T15:59:01.418Z,7.22
2022-09-06T16:01:28.522Z,7.25
2022-09-06T16:04:03.816Z,8.25
2022-09-06T16:06:42.168Z,7.13
2022-09-06T16:09:14.364Z,9.27
2022-09-06T16:11:42.333Z,8.00
2022-09-06T16:14:13.263Z,6.00
2022-09-06T16:16:41.927Z,9.95
2022-09-06T16:19:10.174Z,7.95
2022-09-06T16:21:39.786Z,8.90
2022-09-06T16:24:10.207Z,11.57
2022-09-06T16:26:41.219Z,8.65
2022-09-06T16:29:10.094Z,7.93
2022-09-06T16:31:40.233Z,8.45
2022-09-06T16:34:09.950Z,8.40
2022-09-06T16:36:37.557Z,10.02
2022-09-06T16:39:05.346Z,10.40
2022-09-06T16:41:39.567Z,10.98
2022-09-06T16:44:16.626Z,10.47
2022-09-06T16:46:50.055Z,7.65
2022-09-06T16:49:17.890Z,9.65
2022-09-06T16:51:46.005Z,8.23
2022-09-06T16:54:14.123Z,11.40
2022-09-06T16:56:41.658Z,7.25
2022-09-06T16:59:10.448Z,7.63
2022-09-06T17:01:42.028Z,11.85
2022-09-06T17:04:09.993Z,7.10
2022-09-06T17:06:44.964Z,9.38
2022-09-06T17:09:16.194Z,7.75
2022-09-06T17:11:43.107Z,8.05
2022-09-06T17:14:10.118Z,8.25
2022-09-06T17:16:55.771Z,8.63
2022-09-06T17:19:22.711Z,10.98
2022-09-06T17:21:50.202Z,9.40
2022-09-06T17:24:17.017Z,8.40
2022-09-06T17:26:43.886Z,9.38
2022-09-06T17:29:11.055Z,10.43
2022-09-06T17:31:38.234Z,9.35
2022-09-06T17:34:05.451Z,7.63
2022-09-06T17:36:33.951Z,9.00
2022-09-06T17:39:04.626Z,9.73
2022-09-06T17:41:46.141Z,11.43
2022-09-06T17:44:17.008Z,8.77
2022-09-06T17:47:02.662Z,10.05
2022-09-06T17:49:31.767Z,11.15
2022-09-06T17:51:58.636Z,14.32
2022-09-06T17:54:25.925Z,11.48
2022-09-06T17:56:53.014Z,10.00
2022-09-06T17:59:19.972Z,13.65
2022-09-06T18:01:47.039Z,10.93
2022-09-06T18:04:14.898Z,9.50
2022-09-06T18:06:43.714Z,13.77
2022-09-06T18:09:15.589Z,9.20
2022-09-06T18:11:46.056Z,10.80
2022-09-06T18:14:17.797Z,10.23
2022-09-06T18:16:47.406Z,11.30
2022-09-06T18:19:15.456Z,13.20
2022-09-06T18:21:42.772Z,14.27
2022-09-06T18:24:10.850Z,9.90
2022-09-06T18:26:37.823Z,9.98
2022-09-06T18:29:08.523Z,9.32
2022-09-06T18:31:35.921Z,9.38
2022-09-06T18:34:02.776Z,10.63
2022-09-06T18:36:32.414Z,11.40
2022-09-06T18:39:05.066Z,10.50
2022-09-06T18:41:52.199Z,12.43
2022-09-06T18:44:19.232Z,12.20
2022-09-06T18:46:46.324Z,8.68
2022-09-06T18:49:15.291Z,9.93
2022-09-06T18:51:43.769Z,11.73
2022-09-06T18:54:11.264Z,12.10
2022-09-06T18:56:38.687Z,11.57
2022-09-06T18:59:06.240Z,11.45
2022-09-06T19:01:35.234Z,9.82
2022-09-06T19:04:04.094Z,9.70
2022-09-06T19:06:33.507Z,9.65
2022-09-06T19:09:08.367Z,11.82
2022-09-06T19:11:36.084Z,13.45
2022-09-06T19:14:04.408Z,9.98
2022-09-06T19:16:32.088Z,13.35
2022-09-06T19:19:08.560Z,9.73
2022-09-06T19:21:41.016Z,8.70
2022-09-06T19:24:10.919Z,9.60
2022-09-06T19:26:41.684Z,9.18
2022-09-06T19:29:14.851Z,12.95
2022-09-06T19:31:42.759Z,11.40
2022-09-06T19:34:10.077Z,12.10
2022-09-06T19:36:36.913Z,15.43
2022-09-06T19:39:10.318Z,8.38
2022-09-06T19:41:43.099Z,11.63
2022-09-06T19:44:11.336Z,10.90
2022-09-06T19:46:39.456Z,10.07
2022-09-06T19:49:09.436Z,11.90
2022-09-06T19:51:37.304Z,10.75
2022-09-06T19:54:05.158Z,10.35
2022-09-06T19:56:35.060Z,11.93
2022-09-06T19:59:08.050Z,11.30
2022-09-06T20:01:37.758Z,12.95
2022-09-06T20:04:08.200Z,13.10
2022-09-06T20:06:36.100Z,12.00
2022-09-06T20:09:06.751Z,12.90
2022-09-06T20:11:36.171Z,12.25
2022-09-06T20:14:03.378Z,12.30
2022-09-06T20:16:30.796Z,13.85
2022-09-06T20:19:01.745Z,12.63
2022-09-06T20:21:29.742Z,13.32
2022-09-06T20:23:59.498Z,11.02
2022-09-06T20:26:29.562Z,15.98
2022-09-06T20:28:59.864Z,11.93
2022-09-06T20:31:29.343Z,11.65
2022-09-06T20:33:58.243Z,12.65
2022-09-06T20:36:25.521Z,11.25
2022-09-06T20:38:52.432Z,13.55
2022-09-06T20:41:23.651Z,10.68
2022-09-06T20:43:59.274Z,15.00
2022-09-06T20:46:29.605Z,15.73
2022-09-06T20:48:59.904Z,11.60
2022-09-06T20:51:26.895Z,16.40
2022-09-06T20:53:56.887Z,11.32
2022-09-06T20:56:35.241Z,14.25
2022-09-06T20:59:04.850Z,20.83
2022-09-06T21:01:36.115Z,12.48
2022-09-06T21:04:06.444Z,15.18
2022-09-06T21:06:36.350Z,16.23
2022-09-06T21:09:13.478Z,15.02
2022-09-06T21:11:41.381Z,15.25
2022-09-06T21:14:09.988Z,10.10
2022-09-06T21:16:37.853Z,12.57
2022-09-06T21:19:08.995Z,11.25
2022-09-06T21:21:37.099Z,12.90
2022-09-06T21:24:07.082Z,11.82
2022-09-06T21:26:34.331Z,14.45
2022-09-06T21:29:01.620Z,11.80
2022-09-06T21:31:32.338Z,18.17
2022-09-06T21:34:07.415Z,12.95
2022-09-06T21:36:37.440Z,16.45
2022-09-06T21:39:09.687Z,12.63
2022-09-06T21:41:42.507Z,13.40
2022-09-06T21:44:10.551Z,14.38
2022-09-06T21:46:39.555Z,17.58
2022-09-06T21:49:10.422Z,16.00
2022-09-06T21:51:38.862Z,14.90
2022-09-06T21:54:06.315Z,15.63
2022-09-06T21:56:38.459Z,15.05
2022-09-06T21:59:06.578Z,16.17
2022-09-06T22:01:35.691Z,17.55
2022-09-06T22:04:03.707Z,20.15
2022-09-06T22:06:32.609Z,14.95
2022-09-06T22:09:03.709Z,21.48
2022-09-06T22:11:34.045Z,20.58
2022-09-06T22:14:07.072Z,18.17
2022-09-06T22:16:37.598Z,15.70
2022-09-06T22:19:06.846Z,14.05
2022-09-06T22:21:34.926Z,13.65
2022-09-06T22:24:06.439Z,15.73
2022-09-06T22:26:36.742Z,14.30
2022-09-06T22:29:07.163Z,13.02
2022-09-06T22:31:35.722Z,19.70
2022-09-06T22:34:03.386Z,14.23
2022-09-06T22:36:33.806Z,13.75
2022-09-06T22:39:00.646Z,16.92
2022-09-06T22:41:31.663Z,17.10
2022-09-06T22:44:02.415Z,14.13
2022-09-06T22:46:30.160Z,10.02
2022-09-06T22:48:57.344Z,10.10
2022-09-06T22:51:24.396Z,14.15
2022-09-06T22:53:51.261Z,11.65
2022-09-06T22:56:18.420Z,10.80
2022-09-06T22:58:45.292Z,14.82
2022-09-06T23:01:15.376Z,13.65
2022-09-06T23:03:43.052Z,10.70
2022-09-06T23:06:10.917Z,14.13
2022-09-06T23:08:40.591Z,16.08
2022-09-06T23:11:13.766Z,14.68
2022-09-06T23:13:44.072Z,12.65
2022-09-06T23:16:15.474Z,11.75
2022-09-06T23:18:42.901Z,10.95
2022-09-06T23:21:17.474Z,12.68
2022-09-06T23:23:45.455Z,12.20
2022-09-06T23:26:15.975Z,14.85
2022-09-06T23:28:43.616Z,11.43
2022-09-06T23:31:14.306Z,10.27
2022-09-06T23:33:42.384Z,11.73
2022-09-06T23:36:13.278Z,12.23
2022-09-06T23:38:42.023Z,12.35
2022-09-06T23:41:10.448Z,11.00
2022-09-06T23:43:38.562Z,11.15
2022-09-06T23:46:05.401Z,12.25
2022-09-06T23:48:32.460Z,13.20
2022-09-06T23:50:59.805Z,15.35
2022-09-06T23:53:26.907Z,19.70
2022-09-06T23:55:53.812Z,16.40
2022-09-06T23:58:21.243Z,19.73
